Time;durP1;ratioP1;P1;durP2;ratioP2;P2;SDS_P1;SDS_P2;PMS_P1;PMS_P2;Temp;Humidity;BMP_temperature;BMP_pressure;BME280_temperature;BME280_humidity;BME280_pressure;Samples;Min_cycle;Max_cycle;Signal;HPM_P1;HPM_P2
2021/09/10 00:00:36;;;;;;;3.33;1.95;;;;;;;19.82;100.00;100855.41;6274688;28;20049;-77
2021/09/10 00:03:37;;;;;;;1.33;1.20;;;;;;;19.82;100.00;100858.91;6273474;28;20127;-79
2021/09/10 00:06:39;;;;;;;3.33;2.17;;;;;;;19.81;100.00;100864.38;6273615;28;20049;-79
2021/09/10 00:09:40;;;;;;;2.45;1.65;;;;;;;19.77;100.00;100869.16;6273403;28;20068;-79
2021/09/10 00:12:43;;;;;;;3.97;1.85;;;;;;;19.75;100.00;100871.94;6273570;28;20041;-79
2021/09/10 00:15:45;;;;;;;3.25;2.08;;;;;;;19.71;100.00;100873.22;6273060;28;20426;-79
2021/09/10 00:18:46;;;;;;;1.77;1.40;;;;;;;19.65;100.00;100863.09;6271998;28;20068;-79
2021/09/10 00:21:47;;;;;;;1.85;1.48;;;;;;;19.58;100.00;100866.44;6272482;28;20412;-79
2021/09/10 00:24:49;;;;;;;2.20;1.30;;;;;;;19.57;100.00;100870.03;6272971;28;20041;-78
2021/09/10 00:27:51;;;;;;;2.67;1.80;;;;;;;19.48;100.00;100872.56;6272894;28;20071;-79
2021/09/10 00:30:53;;;;;;;2.42;1.55;;;;;;;19.38;100.00;100868.19;6272902;28;20433;-78
2021/09/10 00:33:54;;;;;;;3.50;2.10;;;;;;;19.34;100.00;100878.25;6272623;28;20056;-79
2021/09/10 00:36:55;;;;;;;3.53;1.55;;;;;;;19.27;100.00;100885.97;6272674;28;20048;-78
2021/09/10 00:39:57;;;;;;;3.10;1.77;;;;;;;19.28;100.00;100886.81;6272360;28;20049;-78
2021/09/10 00:43:00;;;;;;;2.25;1.73;;;;;;;19.30;100.00;100884.84;6271880;28;20056;-79
2021/09/10 00:46:01;;;;;;;3.20;2.25;;;;;;;19.27;100.00;100888.63;6272370;28;20048;-78
2021/09/10 00:49:04;;;;;;;1.98;1.60;;;;;;;19.28;100.00;100884.13;6273373;28;20424;-78
2021/09/10 00:52:05;;;;;;;2.83;1.67;;;;;;;19.30;100.00;100881.31;6272648;28;20056;-79
2021/09/10 00:55:07;;;;;;;2.60;1.95;;;;;;;19.31;100.00;100886.53;6272390;28;20059;-79
2021/09/10 00:58:10;;;;;;;2.85;1.73;;;;;;;19.34;100.00;100880.91;6273238;28;20045;-79
2021/09/10 01:01:11;;;;;;;2.30;1.77;;;;;;;19.37;100.00;100883.31;6273948;28;20067;-79
2021/09/10 01:04:13;;;;;;;3.30;1.92;;;;;;;19.41;100.00;100882.09;6272652;28;20045;-79
2021/09/10 01:07:14;;;;;;;2.78;2.00;;;;;;;19.45;100.00;100883.50;6274058;28;20053;-79
2021/09/10 01:10:17;;;;;;;5.43;2.03;;;;;;;19.41;100.00;100884.75;6273257;28;20049;-79
2021/09/10 01:13:20;;;;;;;2.72;2.00;;;;;;;19.41;100.00;100883.91;6273784;28;20056;-79
2021/09/10 01:16:22;;;;;;;3.70;2.85;;;;;;;19.40;100.00;100890.22;6272998;28;20476;-79
2021/09/10 01:19:27;;;;;;;5.45;2.60;;;;;;;19.35;100.00;100889.75;6273001;28;20068;-79
2021/09/10 01:22:28;;;;;;;4.68;3.03;;;;;;;19.39;100.00;100891.19;6273347;28;20060;-79
2021/09/10 01:25:31;;;;;;;7.15;2.60;;;;;;;19.41;100.00;100897.22;6273098;28;20060;-78
2021/09/10 01:28:32;;;;;;;4.80;2.80;;;;;;;19.42;100.00;100902.41;6274380;28;20057;-79
2021/09/10 01:31:34;;;;;;;8.05;3.08;;;;;;;19.41;100.00;100894.56;6277644;28;20053;-79
2021/09/10 01:34:35;;;;;;;4.80;2.92;;;;;;;19.40;100.00;100892.88;6277493;28;20049;-79
2021/09/10 01:37:37;;;;;;;3.30;2.47;;;;;;;19.30;100.00;100895.50;6277296;28;20052;-79
2021/09/10 01:40:40;;;;;;;3.88;2.90;;;;;;;19.27;100.00;100890.44;6278377;28;20049;-79
2021/09/10 01:43:41;;;;;;;4.85;2.35;;;;;;;19.30;100.00;100897.31;6277726;28;20056;-79
2021/09/10 01:46:43;;;;;;;3.33;2.58;;;;;;;19.34;100.00;100901.41;6277371;28;20053;-79
2021/09/10 01:49:44;;;;;;;7.43;3.10;;;;;;;19.33;100.00;100899.72;6277655;28;20049;-79
2021/09/10 01:52:46;;;;;;;4.32;2.83;;;;;;;19.36;100.00;100900.31;6278181;28;20049;-79
2021/09/10 01:55:48;;;;;;;6.38;2.95;;;;;;;19.35;100.00;100903.97;6277239;28;20387;-80
2021/09/10 01:58:50;;;;;;;7.30;2.50;;;;;;;19.35;100.00;100908.41;6275969;28;20044;-80
2021/09/10 02:01:51;;;;;;;5.70;2.95;;;;;;;19.30;100.00;100908.81;6277452;28;20052;-80
2021/09/10 02:04:52;;;;;;;3.15;2.40;;;;;;;19.28;100.00;100905.47;6277726;28;20128;-80
2021/09/10 02:07:54;;;;;;;4.30;2.92;;;;;;;19.23;100.00;100907.69;6278035;28;20053;-79
2021/09/10 02:10:57;;;;;;;5.13;3.28;;;;;;;19.18;100.00;100913.41;6277860;28;20440;-79
2021/09/10 02:13:58;;;;;;;4.78;3.33;;;;;;;19.15;100.00;100921.66;6277621;28;20492;-79
2021/09/10 02:17:00;;;;;;;7.70;3.25;;;;;;;19.12;100.00;100918.41;6277099;28;20051;-79
2021/09/10 02:20:01;;;;;;;5.53;3.13;;;;;;;19.10;100.00;100918.56;6277431;28;20049;-78
2021/09/10 02:23:02;;;;;;;3.80;2.70;;;;;;;19.08;100.00;100917.84;6278022;28;20056;-79
2021/09/10 02:26:05;;;;;;;7.07;3.30;;;;;;;19.12;100.00;100908.63;6277853;28;20063;-79
2021/09/10 02:29:06;;;;;;;8.52;3.65;;;;;;;19.18;100.00;100912.56;6277586;28;20060;-80
2021/09/10 02:32:08;;;;;;;5.65;3.38;;;;;;;19.21;100.00;100918.47;6277014;28;20045;-79
2021/09/10 02:35:09;;;;;;;9.27;3.60;;;;;;;19.32;100.00;100914.88;6276422;28;20040;-79
2021/09/10 02:38:11;;;;;;;6.28;4.13;;;;;;;19.24;100.00;100914.69;6276543;28;20053;-79
2021/09/10 02:41:14;;;;;;;12.40;4.22;;;;;;;19.26;100.00;100918.09;6275725;28;20492;-79
2021/09/10 02:44:16;;;;;;;6.18;3.95;;;;;;;19.27;100.00;100917.94;6277188;28;20523;-79
2021/09/10 02:47:18;;;;;;;7.15;3.95;;;;;;;19.32;100.00;100922.03;6276844;28;20087;-79
2021/09/10 02:50:19;;;;;;;6.72;3.92;;;;;;;19.34;100.00;100917.41;6276775;28;20045;-79
2021/09/10 02:53:20;;;;;;;8.63;3.85;;;;;;;19.33;100.00;100918.38;6276737;28;20140;-79
2021/09/10 02:56:23;;;;;;;6.30;4.18;;;;;;;19.29;100.00;100923.13;6276899;28;20051;-79
2021/09/10 02:59:24;;;;;;;5.75;4.15;;;;;;;19.27;100.00;100923.28;6277966;28;20143;-79
2021/09/10 03:02:26;;;;;;;5.95;3.85;;;;;;;19.26;100.00;100921.59;6277417;28;20056;-79
2021/09/10 03:05:29;;;;;;;8.00;3.92;;;;;;;19.21;100.00;100921.16;6276377;28;20052;-78
2021/09/10 03:08:30;;;;;;;10.38;4.63;;;;;;;19.21;100.00;100918.47;6277154;28;20484;-79
2021/09/10 03:11:33;;;;;;;6.28;3.83;;;;;;;19.21;100.00;100923.81;6276724;28;20059;-78
2021/09/10 03:14:34;;;;;;;5.80;3.42;;;;;;;19.17;100.00;100917.06;6276276;28;20048;-79
2021/09/10 03:17:36;;;;;;;5.85;3.25;;;;;;;19.19;100.00;100924.91;6276290;28;20056;-79
2021/09/10 03:20:37;;;;;;;4.65;2.72;;;;;;;19.18;100.00;100921.41;6276743;28;20060;-79
2021/09/10 03:23:39;;;;;;;6.03;3.90;;;;;;;19.18;100.00;100929.41;6276608;28;20053;-79
2021/09/10 03:26:41;;;;;;;7.07;4.05;;;;;;;19.12;100.00;100931.72;6276666;28;20056;-78
2021/09/10 03:29:43;;;;;;;7.25;4.45;;;;;;;18.99;100.00;100929.31;6275223;28;20175;-78
2021/09/10 03:32:44;;;;;;;7.95;4.45;;;;;;;18.92;100.00;100928.97;6276127;28;20420;-78
2021/09/10 03:35:46;;;;;;;7.85;4.28;;;;;;;18.86;100.00;100932.16;6275317;28;20512;-78
2021/09/10 03:38:47;;;;;;;8.48;4.30;;;;;;;18.86;100.00;100926.84;6274949;28;20060;-78
2021/09/10 03:41:50;;;;;;;8.25;4.97;;;;;;;18.83;100.00;100915.59;6275002;28;20056;-78
2021/09/10 03:44:51;;;;;;;7.78;4.40;;;;;;;18.73;100.00;100912.88;6274400;28;20052;-77
2021/09/10 03:47:52;;;;;;;11.70;5.60;;;;;;;18.73;100.00;100908.41;6274666;28;20049;-77
2021/09/10 03:50:54;;;;;;;9.82;5.35;;;;;;;18.69;100.00;100887.50;6274186;28;20045;-78
2021/09/10 03:53:55;;;;;;;9.73;4.28;;;;;;;18.61;100.00;100888.09;6273887;28;20044;-78
2021/09/10 03:56:58;;;;;;;9.00;5.28;;;;;;;18.60;100.00;100889.09;6275897;28;20049;-78
2021/09/10 03:59:59;;;;;;;9.60;4.70;;;;;;;18.51;100.00;100893.38;6273776;28;20055;-78
2021/09/10 04:03:03;;;;;;;8.48;4.55;;;;;;;18.52;100.00;100891.53;6273989;28;20432;-77
2021/09/10 04:06:04;;;;;;;10.02;4.70;;;;;;;18.52;100.00;100897.72;6273458;28;20052;-77
2021/09/10 04:09:06;;;;;;;9.35;5.05;;;;;;;18.52;100.00;100892.38;6273085;28;20053;-77
2021/09/10 04:12:08;;;;;;;9.18;5.03;;;;;;;18.55;100.00;100898.44;6272885;28;20461;-78
2021/09/10 04:15:10;;;;;;;15.77;5.82;;;;;;;18.52;100.00;100900.38;6272924;28;20049;-77
2021/09/10 04:18:11;;;;;;;8.32;5.25;;;;;;;18.49;100.00;100902.47;6273220;28;20049;-77
2021/09/10 04:21:13;;;;;;;8.40;5.10;;;;;;;18.51;100.00;100903.16;6273207;28;20511;-78
2021/09/10 04:24:17;;;;;;;6.60;4.82;;;;;;;18.52;100.00;100908.34;6272589;28;20045;-78
2021/09/10 04:27:20;;;;;;;13.00;5.68;;;;;;;18.48;100.00;100904.25;6272717;28;20135;-77
2021/09/10 04:30:22;;;;;;;9.80;4.68;;;;;;;18.47;100.00;100905.25;6272986;28;20045;-78
2021/09/10 04:33:23;;;;;;;9.73;5.47;;;;;;;18.47;100.00;100901.75;6273378;28;20056;-77
2021/09/10 04:36:24;;;;;;;12.95;6.47;;;;;;;18.50;100.00;100904.16;6272479;28;20048;-78
2021/09/10 04:39:26;;;;;;;8.65;5.00;;;;;;;18.50;100.00;100907.66;6272065;28;20045;-78
2021/09/10 04:42:28;;;;;;;7.20;4.47;;;;;;;18.47;100.00;100897.25;6272419;28;20060;-77
2021/09/10 04:45:30;;;;;;;7.95;4.13;;;;;;;18.47;100.00;100899.06;6272476;28;20397;-78
2021/09/10 04:48:31;;;;;;;8.07;4.75;;;;;;;18.47;100.00;100909.72;6272423;28;20045;-77
2021/09/10 04:51:33;;;;;;;14.15;5.97;;;;;;;18.48;100.00;100916.72;6272424;28;20053;-78
2021/09/10 04:54:34;;;;;;;8.10;4.90;;;;;;;18.49;100.00;100908.63;6271945;28;20060;-77
2021/09/10 04:57:37;;;;;;;11.70;5.28;;;;;;;18.52;100.00;100918.16;6271193;28;20056;-77
2021/09/10 05:00:38;;;;;;;11.32;5.32;;;;;;;18.52;100.00;100913.69;6270377;28;20041;-77
2021/09/10 05:03:40;;;;;;;8.45;5.07;;;;;;;18.53;100.00;100917.22;6271524;28;20044;-78
2021/09/10 05:06:41;;;;;;;12.23;5.78;;;;;;;18.52;100.00;100920.81;6275352;28;20415;-78
2021/09/10 05:09:42;;;;;;;10.15;5.75;;;;;;;18.55;100.00;100933.03;6274483;28;20052;-78
2021/09/10 05:12:45;;;;;;;8.00;4.88;;;;;;;18.55;100.00;100933.03;6275656;28;20048;-77
2021/09/10 05:15:46;;;;;;;10.15;5.22;;;;;;;18.56;100.00;100942.72;6275007;28;20041;-78
2021/09/10 05:18:47;;;;;;;11.65;5.43;;;;;;;18.58;100.00;100946.09;6274993;28;20427;-77
2021/09/10 05:21:49;;;;;;;7.80;4.38;;;;;;;18.59;100.00;100953.94;6275103;28;20070;-77
2021/09/10 05:24:50;;;;;;;9.65;5.65;;;;;;;18.59;100.00;100951.28;6271892;28;20053;-78
2021/09/10 05:27:53;;;;;;;11.32;4.88;;;;;;;18.57;100.00;100942.56;6276391;28;20056;-77
2021/09/10 05:30:54;;;;;;;10.05;5.53;;;;;;;18.58;100.00;100944.28;6275416;28;20450;-77
2021/09/10 05:33:56;;;;;;;8.55;4.82;;;;;;;18.60;100.00;100949.47;6276531;28;20484;-77
2021/09/10 05:36:57;;;;;;;9.70;4.93;;;;;;;18.57;100.00;100942.56;6275827;28;20055;-77
2021/09/10 05:39:59;;;;;;;11.52;4.88;;;;;;;18.58;100.00;100933.63;6270960;28;20060;-77
2021/09/10 05:43:01;;;;;;;10.10;5.85;;;;;;;18.63;100.00;100941.22;6276496;28;20412;-76
2021/09/10 05:46:03;;;;;;;11.25;4.97;;;;;;;18.63;100.00;100949.22;6276535;28;20051;-78
2021/09/10 05:49:04;;;;;;;9.90;4.75;;;;;;;18.62;100.00;100945.72;6276632;28;20049;-76
2021/09/10 05:52:09;;;;;;;10.77;5.10;;;;;;;18.63;100.00;100952.72;6276571;28;20053;-77
2021/09/10 05:55:11;;;;;;;9.75;4.50;;;;;;;18.64;100.00;100958.88;6276738;28;20055;-77
2021/09/10 05:58:14;;;;;;;8.73;4.78;;;;;;;18.62;100.00;100961.69;6276549;28;20045;-77
2021/09/10 06:01:15;;;;;;;8.55;5.18;;;;;;;18.59;100.00;100961.94;6276411;28;20052;-78
2021/09/10 06:04:17;;;;;;;11.65;4.75;;;;;;;18.60;100.00;100963.63;6275806;28;20041;-77
2021/09/10 06:07:18;;;;;;;11.38;4.57;;;;;;;18.59;100.00;100961.09;6276541;28;20060;-78
2021/09/10 06:10:19;;;;;;;8.98;4.75;;;;;;;18.57;100.00;100955.88;6275695;28;20055;-77
2021/09/10 06:13:22;;;;;;;9.02;5.05;;;;;;;18.57;100.00;100960.34;6276140;28;20049;-77
2021/09/10 06:16:23;;;;;;;6.75;3.83;;;;;;;18.57;100.00;100955.03;6274896;28;20045;-77
2021/09/10 06:19:25;;;;;;;6.38;3.72;;;;;;;18.56;100.00;100956.84;6288294;22;20064;-74
2021/09/10 06:22:27;;;;;;;7.40;4.03;;;;;;;18.59;100.00;100969.91;6273970;28;20059;-74
2021/09/10 06:25:29;;;;;;;7.78;4.43;;;;;;;18.60;100.00;100973.41;6267812;28;20073;-74
2021/09/10 06:28:31;;;;;;;7.55;3.72;;;;;;;18.60;100.00;100974.25;6264538;28;20052;-76
2021/09/10 06:31:33;;;;;;;7.80;3.90;;;;;;;18.61;100.00;100972.44;6251035;28;20054;-76
2021/09/10 06:34:34;;;;;;;9.13;4.22;;;;;;;18.61;100.00;100973.28;6248915;28;20049;-76
2021/09/10 06:37:35;;;;;;;10.32;4.80;;;;;;;18.57;100.00;100977.16;6249352;28;20049;-76
2021/09/10 06:40:37;;;;;;;7.03;3.90;;;;;;;18.58;100.00;100980.72;6248937;28;20057;-75
2021/09/10 06:43:40;;;;;;;9.40;4.53;;;;;;;18.61;100.00;100988.41;6248564;28;20049;-75
2021/09/10 06:46:41;;;;;;;7.80;4.55;;;;;;;18.58;100.00;100984.22;6248811;28;20088;-75
2021/09/10 06:49:43;;;;;;;8.55;4.50;;;;;;;18.56;100.00;100985.28;6248668;28;20061;-76
2021/09/10 06:52:44;;;;;;;6.82;3.97;;;;;;;18.58;100.00;100981.56;6248839;28;20052;-75
2021/09/10 06:55:45;;;;;;;7.38;3.75;;;;;;;18.62;100.00;100993.63;6248147;28;20444;-75
2021/09/10 06:58:48;;;;;;;6.53;4.30;;;;;;;18.67;100.00;100990.59;6248511;28;20053;-75
2021/09/10 07:01:50;;;;;;;6.05;3.97;;;;;;;18.68;100.00;100993.13;6250527;28;20072;-75
2021/09/10 07:04:51;;;;;;;11.95;4.82;;;;;;;18.71;100.00;101003.53;6251798;28;20053;-75
2021/09/10 07:07:53;;;;;;;9.20;4.78;;;;;;;18.74;100.00;101008.59;6251465;28;20049;-76
2021/09/10 07:10:54;;;;;;;6.18;3.80;;;;;;;18.79;100.00;101010.88;6248418;28;20053;-75
2021/09/10 07:13:57;;;;;;;8.90;4.95;;;;;;;18.78;100.00;101009.19;6248089;28;20053;-76
2021/09/10 07:16:58;;;;;;;6.80;3.95;;;;;;;18.82;100.00;101013.28;6248016;28;20053;-76
2021/09/10 07:19:59;;;;;;;8.52;3.75;;;;;;;18.88;100.00;101017.25;6247983;28;20057;-75
2021/09/10 07:23:01;;;;;;;5.00;3.72;;;;;;;18.87;100.00;101026.22;6247985;28;20053;-75
2021/09/10 07:26:03;;;;;;;8.48;4.05;;;;;;;18.82;100.00;101029.25;6247297;28;20049;-75
2021/09/10 07:29:06;;;;;;;5.50;4.18;;;;;;;18.87;100.00;101029.72;6247742;28;20056;-76
2021/09/10 07:32:07;;;;;;;7.97;4.25;;;;;;;18.94;100.00;101028.25;6248033;28;20053;-76
2021/09/10 07:35:10;;;;;;;6.63;4.25;;;;;;;19.03;100.00;101023.97;6247475;28;20561;-76
2021/09/10 07:38:11;;;;;;;9.75;5.63;;;;;;;19.13;100.00;101032.03;6244158;28;20053;-77
2021/09/10 07:41:13;;;;;;;8.73;4.95;;;;;;;19.18;100.00;101027.97;6248230;28;20045;-76
2021/09/10 07:44:17;;;;;;;8.93;5.03;;;;;;;19.27;100.00;101027.19;6248594;28;20518;-76
2021/09/10 07:47:18;;;;;;;9.23;4.80;;;;;;;19.37;100.00;101032.59;6243062;28;20053;-76
2021/09/10 07:50:20;;;;;;;8.20;4.32;;;;;;;19.43;100.00;101037.38;6231067;28;20054;-77
2021/09/10 07:53:21;;;;;;;10.85;4.97;;;;;;;19.53;100.00;101034.78;6244886;28;20072;-77
2021/09/10 07:56:22;;;;;;;10.68;5.32;;;;;;;19.62;100.00;101038.47;6235043;28;20046;-76
2021/09/10 07:59:25;;;;;;;8.32;4.78;;;;;;;19.59;100.00;101042.25;6222351;28;20448;-77
2021/09/10 08:02:27;;;;;;;8.98;4.80;;;;;;;19.71;100.00;101043.88;6234363;28;20120;-76
2021/09/10 08:05:28;;;;;;;9.38;5.25;;;;;;;19.75;100.00;101057.78;6255051;28;20045;-76
2021/09/10 08:08:29;;;;;;;8.88;5.07;;;;;;;19.73;100.00;101063.25;6249348;28;20053;-78
2021/09/10 08:11:33;;;;;;;10.27;5.80;;;;;;;19.78;100.00;101065.53;6247569;28;20049;-76
2021/09/10 08:14:35;;;;;;;12.10;6.03;;;;;;;19.65;100.00;101060.41;6271473;28;20087;-76
2021/09/10 08:17:37;;;;;;;13.30;7.15;;;;;;;19.62;100.00;101060.69;6271843;28;20059;-74
2021/09/10 08:20:39;;;;;;;12.43;6.57;;;;;;;19.55;100.00;101059.47;6259658;28;20072;-75
2021/09/10 08:23:40;;;;;;;10.25;6.22;;;;;;;19.62;100.00;101059.81;6251100;28;20049;-76
2021/09/10 08:26:42;;;;;;;10.88;6.78;;;;;;;19.69;100.00;101052.97;6249917;28;20038;-76
2021/09/10 08:29:44;;;;;;;13.90;7.88;;;;;;;19.74;100.00;101064.94;6260594;28;20514;-76
2021/09/10 08:32:46;;;;;;;14.27;7.57;;;;;;;19.71;100.00;101072.34;6260794;28;20049;-76
2021/09/10 08:35:47;;;;;;;14.30;7.10;;;;;;;19.65;100.00;101067.56;6270842;28;20076;-77
2021/09/10 08:38:48;;;;;;;14.25;7.00;;;;;;;19.66;100.00;101074.56;6273347;28;20060;-73
2021/09/10 08:41:50;;;;;;;15.95;8.30;;;;;;;19.72;100.00;101074.06;6276288;28;20059;-76
2021/09/10 08:44:52;;;;;;;15.15;8.02;;;;;;;19.72;100.00;101072.22;6268921;28;20042;-73
2021/09/10 08:47:54;;;;;;;14.95;8.38;;;;;;;19.72;100.00;101072.22;6251353;28;20057;-74
2021/09/10 08:50:56;;;;;;;14.80;7.40;;;;;;;19.80;100.00;101076.88;6250880;28;20042;-76
2021/09/10 08:53:57;;;;;;;11.80;7.80;;;;;;;19.75;100.00;101073.78;6251244;28;20188;-74
2021/09/10 08:56:58;;;;;;;11.50;7.05;;;;;;;19.76;100.00;101084.31;6245374;28;20053;-75
2021/09/10 09:00:09;;;;;;;17.33;8.93;;;;;;;19.81;100.00;101081.25;6251307;28;20053;-75
2021/09/10 09:03:12;;;;;;;16.80;8.35;;;;;;;19.80;100.00;101087.56;6251061;28;20488;-76
2021/09/10 09:06:13;;;;;;;15.65;8.85;;;;;;;19.80;100.00;101084.03;6250685;28;20041;-75
2021/09/10 09:09:14;;;;;;;16.77;9.00;;;;;;;19.77;100.00;101091.34;6250869;28;20060;-75
2021/09/10 09:12:19;;;;;;;14.57;7.80;;;;;;;19.75;100.00;101089.78;6250845;28;20416;-75
2021/09/10 09:15:22;;;;;;;15.10;8.35;;;;;;;19.71;100.00;101097.22;6250512;28;20072;-74
2021/09/10 09:18:39;;;;;;;13.65;6.80;;;;;;;19.74;100.00;101088.94;6250708;28;20060;-75
2021/09/10 09:21:41;;;;;;;18.02;9.23;;;;;;;19.81;100.00;101097.25;6250705;28;20053;-76
2021/09/10 09:24:42;;;;;;;17.55;8.20;;;;;;;19.88;100.00;101093.06;6250693;28;20045;-76
2021/09/10 09:27:44;;;;;;;17.08;8.60;;;;;;;19.95;100.00;101096.91;6250415;28;20489;-75
2021/09/10 09:30:48;;;;;;;14.73;8.30;;;;;;;19.97;100.00;101094.94;6250138;28;20124;-76
2021/09/10 09:33:50;;;;;;;14.85;8.07;;;;;;;20.04;100.00;101097.94;6250213;28;20401;-76
2021/09/10 09:36:53;;;;;;;16.92;8.65;;;;;;;20.08;100.00;101102.03;6250079;28;20049;-76
2021/09/10 09:39:57;;;;;;;17.15;8.80;;;;;;;20.15;100.00;101094.31;6250444;28;20803;-75
2021/09/10 09:42:58;;;;;;;14.82;8.88;;;;;;;20.29;100.00;101101.94;6250072;28;20057;-73
2021/09/10 09:46:05;;;;;;;18.70;9.30;;;;;;;20.32;100.00;101101.66;6250186;28;20049;-74
2021/09/10 09:49:10;;;;;;;20.23;10.15;;;;;;;20.44;100.00;101097.06;6249907;28;20050;-73
2021/09/10 09:52:12;;;;;;;18.50;9.60;;;;;;;20.50;100.00;101107.22;6250235;28;20060;-75
2021/09/10 09:55:13;;;;;;;22.02;10.52;;;;;;;20.57;100.00;101094.16;6249565;28;20045;-74
2021/09/10 09:58:15;;;;;;;22.55;10.07;;;;;;;20.59;100.00;101095.72;6249691;28;20432;-74
2021/09/10 10:01:17;;;;;;;21.58;10.50;;;;;;;20.63;100.00;101090.94;6249620;28;20049;-74
2021/09/10 10:04:20;;;;;;;19.05;10.50;;;;;;;20.70;100.00;101084.91;6249728;28;20053;-73
2021/09/10 10:07:22;;;;;;;26.10;11.50;;;;;;;20.78;100.00;101084.22;6249447;28;20041;-74
2021/09/10 10:10:26;;;;;;;18.60;9.38;;;;;;;20.91;100.00;101087.44;6249769;28;20057;-73
2021/09/10 10:13:30;;;;;;;17.10;9.32;;;;;;;20.93;100.00;101089.97;6249416;28;20196;-73
2021/09/10 10:16:39;;;;;;;13.65;6.97;;;;;;;20.93;100.00;101082.78;6249718;28;20056;-73
2021/09/10 10:19:44;;;;;;;14.20;7.18;;;;;;;20.97;100.00;101086.03;6249623;28;20057;-74
2021/09/10 10:22:45;;;;;;;19.17;7.68;;;;;;;21.11;100.00;101080.25;6249121;28;20060;-74
2021/09/10 10:26:08;;;;;;;10.75;6.13;;;;;;;21.21;100.00;101083.78;6249289;28;20041;-73
2021/09/10 10:29:12;;;;;;;12.02;7.38;;;;;;;21.23;100.00;101076.47;6249121;28;20394;-73
2021/09/10 10:32:14;;;;;;;14.52;6.97;;;;;;;21.27;100.00;101080.53;6249380;28;20061;-73
2021/09/10 10:35:22;;;;;;;13.75;7.75;;;;;;;21.33;100.00;101083.66;6248747;28;20052;-73
2021/09/10 10:38:23;;;;;;;15.50;7.57;;;;;;;21.39;100.00;101072.38;6248978;28;20497;-74
2021/09/10 10:41:25;;;;;;;17.02;7.93;;;;;;;21.45;100.00;101079.84;6248858;28;20046;-74
2021/09/10 10:44:46;;;;;;;11.90;6.68;;;;;;;21.51;100.00;101072.06;6248717;28;20489;-74
2021/09/10 10:47:48;;;;;;;12.77;6.88;;;;;;;21.54;100.00;101060.25;6248560;28;20049;-74
2021/09/10 10:50:50;;;;;;;13.50;7.40;;;;;;;21.77;100.00;101060.72;6248687;28;20492;-74
2021/09/10 10:54:09;;;;;;;13.27;7.80;;;;;;;21.86;100.00;101053.66;6248323;28;20046;-74
2021/09/10 10:57:27;;;;;;;19.08;9.15;;;;;;;21.81;100.00;101051.44;6248493;28;20056;-74
2021/09/10 11:00:48;;;;;;;14.38;7.40;;;;;;;21.94;100.00;101057.28;6247772;28;20061;-74
2021/09/10 11:03:53;;;;;;;9.48;6.32;;;;;;;22.06;100.00;101043.69;6247990;28;20420;-74
2021/09/10 11:06:56;;;;;;;10.00;6.07;;;;;;;22.07;100.00;101048.88;6248606;28;20409;-74
2021/09/10 11:09:59;;;;;;;11.07;7.22;;;;;;;22.06;100.00;101049.03;6248035;28;20053;-74
2021/09/10 11:13:01;;;;;;;10.27;6.32;;;;;;;22.07;100.00;101056.06;6248178;28;20057;-74
2021/09/10 11:16:08;;;;;;;14.77;7.30;;;;;;;22.02;100.00;101054.69;6247879;28;20420;-74
2021/09/10 11:19:11;;;;;;;12.60;7.82;;;;;;;21.92;100.00;101053.06;6247902;28;20176;-73
2021/09/10 11:22:13;;;;;;;15.95;7.55;;;;;;;21.86;100.00;101057.19;6247906;28;20420;-73
2021/09/10 11:25:14;;;;;;;12.35;6.78;;;;;;;21.70;100.00;101054.28;6247478;28;20424;-73
2021/09/10 11:28:17;;;;;;;14.82;7.22;;;;;;;21.69;100.00;101052.59;6245438;28;20049;-74
2021/09/10 11:31:25;;;;;;;16.77;8.35;;;;;;;22.15;100.00;101049.03;6248052;28;20057;-75
2021/09/10 11:34:34;;;;;;;14.32;7.28;;;;;;;22.13;100.00;101055.53;6247960;28;20050;-75
2021/09/10 11:37:36;;;;;;;20.95;9.82;;;;;;;22.04;100.00;101049.22;6243586;28;20045;-74
2021/09/10 11:40:39;;;;;;;15.95;8.15;;;;;;;21.97;100.00;101040.91;6247494;28;20053;-75
2021/09/10 11:43:40;;;;;;;12.50;7.25;;;;;;;21.99;100.00;101041.63;6243038;28;20061;-74
2021/09/10 11:46:42;;;;;;;13.80;7.50;;;;;;;21.93;100.00;101038.69;6252004;28;20052;-75
2021/09/10 11:49:58;;;;;;;15.57;6.95;;;;;;;21.93;100.00;101036.00;6249137;28;20053;-75
2021/09/10 11:53:00;;;;;;;10.80;6.82;;;;;;;21.98;100.00;101039.06;6225035;28;20495;-75
2021/09/10 11:56:03;;;;;;;12.32;7.40;;;;;;;21.95;100.00;101028.69;6228991;28;20060;-76
2021/09/10 11:59:19;;;;;;;11.20;6.22;;;;;;;22.02;100.00;101032.44;6232085;28;20057;-75
2021/09/10 12:02:21;;;;;;;8.55;5.70;;;;;;;22.01;100.00;101025.41;6230252;28;20692;-76
2021/09/10 12:05:24;;;;;;;9.82;6.45;;;;;;;22.03;100.00;101026.94;6230181;28;20045;-75
2021/09/10 12:08:25;;;;;;;10.70;6.30;;;;;;;22.42;100.00;101021.38;6240010;28;20050;-75
2021/09/10 12:11:27;;;;;;;17.73;8.02;;;;;;;22.46;100.00;101016.56;6233765;28;20048;-75
2021/09/10 12:14:34;;;;;;;10.68;6.45;;;;;;;22.36;100.00;101018.47;6236091;28;20509;-75
2021/09/10 12:17:37;;;;;;;8.27;5.68;;;;;;;22.26;100.00;101011.34;6234467;28;20045;-74
2021/09/10 12:20:41;;;;;;;13.63;6.75;;;;;;;22.26;100.00;101007.84;6249137;22;20127;-78
2021/09/10 12:23:42;;;;;;;10.40;5.80;;;;;;;22.36;100.00;101010.44;6214309;28;20050;-76
2021/09/10 12:26:48;;;;;;;13.10;7.32;;;;;;;22.34;100.00;101015.91;6221887;28;20519;-77
2021/09/10 12:30:08;;;;;;;10.98;5.63;;;;;;;22.39;100.00;101019.00;6221540;28;20125;-77
2021/09/10 12:33:12;;;;;;;8.38;5.45;;;;;;;22.92;100.00;101004.75;6215907;28;20050;-78
2021/09/10 12:36:16;;;;;;;9.98;6.40;;;;;;;23.60;96.31;101003.19;6221767;28;20049;-76
2021/09/10 12:39:17;;;;;;;10.40;6.00;;;;;;;23.98;94.55;100999.16;6222806;28;20141;-78
2021/09/10 12:42:18;;;;;;;13.35;6.57;;;;;;;24.42;91.09;100999.81;6223770;28;20050;-78
2021/09/10 12:45:20;;;;;;;10.65;6.90;;;;;;;24.61;88.78;100998.66;6222700;28;20493;-78
2021/09/10 12:48:22;;;;;;;10.18;5.78;;;;;;;24.57;88.99;100991.94;6223596;28;20060;-78
2021/09/10 12:51:25;;;;;;;10.48;5.72;;;;;;;24.51;88.64;100990.75;6223757;28;20050;-78
2021/09/10 12:54:26;;;;;;;10.63;5.43;;;;;;;24.70;85.19;100986.91;6226177;28;20501;-81
2021/09/10 12:57:28;;;;;;;7.72;4.95;;;;;;;24.66;88.26;100982.84;6228706;28;20046;-80
2021/09/10 13:00:29;;;;;;;6.93;4.50;;;;;;;24.48;88.29;100984.88;6227486;28;20053;-78
2021/09/10 13:03:31;;;;;;;8.00;5.43;;;;;;;24.48;86.83;100984.88;6227469;28;20081;-80
2021/09/10 13:06:33;;;;;;;8.82;5.70;;;;;;;24.05;86.94;100978.72;6225392;28;20042;-79
2021/09/10 13:09:35;;;;;;;7.82;4.65;;;;;;;23.74;90.63;100979.28;6225002;28;20046;-80
2021/09/10 13:12:36;;;;;;;7.07;4.55;;;;;;;23.97;88.93;100971.47;6228187;28;20497;-80
2021/09/10 13:15:38;;;;;;;12.02;5.50;;;;;;;23.68;90.80;100974.56;6224446;28;20417;-79
2021/09/10 13:18:39;;;;;;;8.25;4.88;;;;;;;23.47;91.51;100966.91;6225094;28;20054;-79
2021/09/10 13:21:42;;;;;;;8.23;3.97;;;;;;;23.22;96.22;100963.25;6226026;28;20064;-78
2021/09/10 13:24:44;;;;;;;5.93;3.90;;;;;;;23.25;98.10;100960.25;6226863;28;20045;-78
2021/09/10 13:27:45;;;;;;;6.28;4.32;;;;;;;23.10;97.61;100967.19;6226519;28;20057;-79
2021/09/10 13:30:47;;;;;;;9.27;4.97;;;;;;;22.96;97.98;100973.97;6229072;28;20394;-78
2021/09/10 13:33:48;;;;;;;9.13;4.50;;;;;;;22.88;97.98;100971.19;6230442;28;20494;-79
2021/09/10 13:36:52;;;;;;;7.72;4.28;;;;;;;22.79;99.91;100977.50;6230893;28;20053;-79
2021/09/10 13:39:53;;;;;;;7.68;4.97;;;;;;;22.69;100.00;100974.91;6230613;28;20488;-79
2021/09/10 13:42:55;;;;;;;8.82;4.60;;;;;;;22.63;100.00;100967.50;6223027;28;20050;-79
2021/09/10 13:45:56;;;;;;;8.95;5.15;;;;;;;22.59;100.00;100970.63;6223360;28;20048;-79
2021/09/10 13:48:58;;;;;;;7.82;4.68;;;;;;;22.65;100.00;100970.84;6229720;28;20084;-78
2021/09/10 13:52:00;;;;;;;9.60;5.30;;;;;;;22.65;99.86;100970.84;6229860;28;20054;-79
2021/09/10 13:55:02;;;;;;;6.13;4.45;;;;;;;22.70;100.00;100968.53;6230401;28;20046;-79